sensor_id;sensor_type;location;lat;lon;timestamp;temperature;humidity
10873;DHT22;34586;53.616;10.032;2024-02-23T00:01:35;10.20;1.00
10873;DHT22;34586;53.616;10.032;2024-02-23T00:04:01;10.20;1.00
10873;DHT22;34586;53.616;10.032;2024-02-23T00:06:28;10.20;99.90
10873;DHT22;34586;53.616;10.032;2024-02-23T00:08:54;10.10;99.90
10873;DHT22;34586;53.616;10.032;2024-02-23T00:11:20;10.10;1.00
10873;DHT22;34586;53.616;10.032;2024-02-23T00:13:46;10.00;1.00
10873;DHT22;34586;53.616;10.032;2024-02-23T00:16:12;10.00;1.00
10873;DHT22;34586;53.616;10.032;2024-02-23T00:18:38;9.90;1.00
10873;DHT22;34586;53.616;10.032;2024-02-23T00:21:04;9.90;1.00
10873;DHT22;34586;53.616;10.032;2024-02-23T00:23:29;9.80;1.00
10873;DHT22;34586;53.616;10.032;2024-02-23T00:25:55;9.80;1.00
10873;DHT22;34586;53.616;10.032;2024-02-23T00:28:21;9.80;1.00
10873;DHT22;34586;53.616;10.032;2024-02-23T00:30:46;9.80;1.00
10873;DHT22;34586;53.616;10.032;2024-02-23T00:33:12;9.80;1.00
10873;DHT22;34586;53.616;10.032;2024-02-23T00:35:38;9.90;1.00
10873;DHT22;34586;53.616;10.032;2024-02-23T00:38:03;9.80;1.00
10873;DHT22;34586;53.616;10.032;2024-02-23T00:40:29;9.90;1.00
10873;DHT22;34586;53.616;10.032;2024-02-23T00:42:55;9.90;1.00
10873;DHT22;34586;53.616;10.032;2024-02-23T00:45:20;9.90;1.00
10873;DHT22;34586;53.616;10.032;2024-02-23T00:47:47;10.00;1.00
10873;DHT22;34586;53.616;10.032;2024-02-23T00:50:12;9.80;1.00
10873;DHT22;34586;53.616;10.032;2024-02-23T00:52:38;9.80;1.00
10873;DHT22;34586;53.616;10.032;2024-02-23T00:55:04;9.50;99.90
10873;DHT22;34586;53.616;10.032;2024-02-23T00:57:30;8.90;99.90
10873;DHT22;34586;53.616;10.032;2024-02-23T00:59:58;8.30;99.90
10873;DHT22;34586;53.616;10.032;2024-02-23T01:02:24;8.00;99.90
10873;DHT22;34586;53.616;10.032;2024-02-23T01:04:50;7.80;99.90
10873;DHT22;34586;53.616;10.032;2024-02-23T01:07:16;7.60;99.90
10873;DHT22;34586;53.616;10.032;2024-02-23T01:09:41;7.50;99.90
10873;DHT22;34586;53.616;10.032;2024-02-23T01:12:07;7.60;99.90
10873;DHT22;34586;53.616;10.032;2024-02-23T01:14:32;7.60;99.90
10873;DHT22;34586;53.616;10.032;2024-02-23T01:16:58;7.50;99.90
10873;DHT22;34586;53.616;10.032;2024-02-23T01:19:23;7.50;99.90
10873;DHT22;34586;53.616;10.032;2024-02-23T01:21:49;7.50;99.90
10873;DHT22;34586;53.616;10.032;2024-02-23T01:24:21;7.50;99.90
10873;DHT22;34586;53.616;10.032;2024-02-23T01:26:47;7.50;99.90
10873;DHT22;34586;53.616;10.032;2024-02-23T01:29:12;7.40;99.90
10873;DHT22;34586;53.616;10.032;2024-02-23T01:31:38;7.40;99.90
10873;DHT22;34586;53.616;10.032;2024-02-23T01:34:04;7.40;99.90
10873;DHT22;34586;53.616;10.032;2024-02-23T01:36:31;7.40;99.90
10873;DHT22;34586;53.616;10.032;2024-02-23T01:38:57;7.40;99.90
10873;DHT22;34586;53.616;10.032;2024-02-23T01:41:22;7.40;99.90
10873;DHT22;34586;53.616;10.032;2024-02-23T01:43:48;7.40;99.90
10873;DHT22;34586;53.616;10.032;2024-02-23T01:46:15;7.40;99.90
10873;DHT22;34586;53.616;10.032;2024-02-23T01:48:43;7.50;99.90
10873;DHT22;34586;53.616;10.032;2024-02-23T01:51:09;7.50;99.90
10873;DHT22;34586;53.616;10.032;2024-02-23T01:53:36;7.50;99.90
10873;DHT22;34586;53.616;10.032;2024-02-23T01:56:02;7.50;99.90
10873;DHT22;34586;53.616;10.032;2024-02-23T01:58:29;7.50;99.90
10873;DHT22;34586;53.616;10.032;2024-02-23T02:00:56;7.60;99.90
10873;DHT22;34586;53.616;10.032;2024-02-23T02:03:21;7.60;99.90
10873;DHT22;34586;53.616;10.032;2024-02-23T02:05:47;7.60;99.90
10873;DHT22;34586;53.616;10.032;2024-02-23T02:08:15;7.60;99.90
10873;DHT22;34586;53.616;10.032;2024-02-23T02:10:41;7.70;99.90
10873;DHT22;34586;53.616;10.032;2024-02-23T02:13:08;7.20;99.90
10873;DHT22;34586;53.616;10.032;2024-02-23T02:15:33;7.40;99.90
10873;DHT22;34586;53.616;10.032;2024-02-23T02:17:59;7.40;99.90
10873;DHT22;34586;53.616;10.032;2024-02-23T02:20:25;7.40;99.90
10873;DHT22;34586;53.616;10.032;2024-02-23T02:22:54;7.40;99.90
10873;DHT22;34586;53.616;10.032;2024-02-23T02:25:19;7.30;99.90
10873;DHT22;34586;53.616;10.032;2024-02-23T02:27:45;7.40;99.90
10873;DHT22;34586;53.616;10.032;2024-02-23T02:30:14;7.40;99.90
10873;DHT22;34586;53.616;10.032;2024-02-23T02:32:40;7.30;99.90
10873;DHT22;34586;53.616;10.032;2024-02-23T02:35:06;7.20;99.90
10873;DHT22;34586;53.616;10.032;2024-02-23T02:37:31;7.20;99.90
10873;DHT22;34586;53.616;10.032;2024-02-23T02:39:57;7.20;99.90
10873;DHT22;34586;53.616;10.032;2024-02-23T02:42:22;7.10;99.90
10873;DHT22;34586;53.616;10.032;2024-02-23T02:44:48;7.00;99.90
10873;DHT22;34586;53.616;10.032;2024-02-23T02:47:14;7.00;99.90
10873;DHT22;34586;53.616;10.032;2024-02-23T02:49:40;6.90;99.90
10873;DHT22;34586;53.616;10.032;2024-02-23T02:52:05;6.90;99.90
10873;DHT22;34586;53.616;10.032;2024-02-23T02:54:31;6.80;99.90
10873;DHT22;34586;53.616;10.032;2024-02-23T02:56:57;6.80;99.90
10873;DHT22;34586;53.616;10.032;2024-02-23T02:59:23;6.70;99.90
10873;DHT22;34586;53.616;10.032;2024-02-23T03:01:49;6.80;99.90
10873;DHT22;34586;53.616;10.032;2024-02-23T03:04:14;6.70;99.90
10873;DHT22;34586;53.616;10.032;2024-02-23T03:06:40;6.70;99.90
10873;DHT22;34586;53.616;10.032;2024-02-23T03:09:06;6.70;99.90
10873;DHT22;34586;53.616;10.032;2024-02-23T03:11:32;6.70;99.90
10873;DHT22;34586;53.616;10.032;2024-02-23T03:13:58;6.80;99.90
10873;DHT22;34586;53.616;10.032;2024-02-23T03:16:23;6.70;99.90
10873;DHT22;34586;53.616;10.032;2024-02-23T03:18:51;6.70;99.90
10873;DHT22;34586;53.616;10.032;2024-02-23T03:21:17;6.70;99.90
10873;DHT22;34586;53.616;10.032;2024-02-23T03:23:43;6.70;99.90
10873;DHT22;34586;53.616;10.032;2024-02-23T03:26:08;6.80;99.90
10873;DHT22;34586;53.616;10.032;2024-02-23T03:28:34;6.70;99.90
10873;DHT22;34586;53.616;10.032;2024-02-23T03:31:00;6.70;99.90
10873;DHT22;34586;53.616;10.032;2024-02-23T03:33:26;6.70;99.90
10873;DHT22;34586;53.616;10.032;2024-02-23T03:35:52;6.70;99.90
10873;DHT22;34586;53.616;10.032;2024-02-23T03:38:18;6.70;99.90
10873;DHT22;34586;53.616;10.032;2024-02-23T03:40:43;6.70;99.90
10873;DHT22;34586;53.616;10.032;2024-02-23T03:43:09;6.80;99.90
10873;DHT22;34586;53.616;10.032;2024-02-23T03:45:35;6.70;99.90
10873;DHT22;34586;53.616;10.032;2024-02-23T03:48:01;6.60;99.90
10873;DHT22;34586;53.616;10.032;2024-02-23T03:50:29;6.70;99.90
10873;DHT22;34586;53.616;10.032;2024-02-23T03:52:54;6.70;99.90
10873;DHT22;34586;53.616;10.032;2024-02-23T03:55:20;6.50;99.90
10873;DHT22;34586;53.616;10.032;2024-02-23T03:57:47;6.50;99.90
10873;DHT22;34586;53.616;10.032;2024-02-23T04:00:13;6.50;99.90
10873;DHT22;34586;53.616;10.032;2024-02-23T04:02:39;6.40;99.90
10873;DHT22;34586;53.616;10.032;2024-02-23T04:05:05;6.30;99.90
10873;DHT22;34586;53.616;10.032;2024-02-23T04:07:31;6.30;99.90
10873;DHT22;34586;53.616;10.032;2024-02-23T04:09:57;6.30;99.90
10873;DHT22;34586;53.616;10.032;2024-02-23T04:12:23;6.20;99.90
10873;DHT22;34586;53.616;10.032;2024-02-23T04:14:49;6.10;99.90
10873;DHT22;34586;53.616;10.032;2024-02-23T04:17:14;6.10;99.90
10873;DHT22;34586;53.616;10.032;2024-02-23T04:19:42;6.10;99.90
10873;DHT22;34586;53.616;10.032;2024-02-23T04:22:08;6.10;99.90
10873;DHT22;34586;53.616;10.032;2024-02-23T04:24:37;6.10;99.90
10873;DHT22;34586;53.616;10.032;2024-02-23T04:27:04;6.20;99.90
10873;DHT22;34586;53.616;10.032;2024-02-23T04:29:30;6.20;99.90
10873;DHT22;34586;53.616;10.032;2024-02-23T04:31:55;6.20;99.90
10873;DHT22;34586;53.616;10.032;2024-02-23T04:34:22;6.30;99.90
10873;DHT22;34586;53.616;10.032;2024-02-23T04:36:49;6.40;99.90
10873;DHT22;34586;53.616;10.032;2024-02-23T04:39:14;6.30;99.90
10873;DHT22;34586;53.616;10.032;2024-02-23T04:41:40;6.40;99.90
10873;DHT22;34586;53.616;10.032;2024-02-23T04:44:05;6.40;99.90
10873;DHT22;34586;53.616;10.032;2024-02-23T04:46:31;6.50;99.90
10873;DHT22;34586;53.616;10.032;2024-02-23T04:48:57;6.60;99.90
10873;DHT22;34586;53.616;10.032;2024-02-23T04:51:23;6.40;99.90
10873;DHT22;34586;53.616;10.032;2024-02-23T04:53:49;6.30;99.90
10873;DHT22;34586;53.616;10.032;2024-02-23T04:56:15;6.30;99.90
10873;DHT22;34586;53.616;10.032;2024-02-23T04:58:40;6.20;99.90
10873;DHT22;34586;53.616;10.032;2024-02-23T05:01:08;6.20;99.90
10873;DHT22;34586;53.616;10.032;2024-02-23T05:03:34;6.30;99.90
10873;DHT22;34586;53.616;10.032;2024-02-23T05:05:59;6.40;99.90
10873;DHT22;34586;53.616;10.032;2024-02-23T05:08:25;6.40;99.90
10873;DHT22;34586;53.616;10.032;2024-02-23T05:10:53;6.40;99.90
10873;DHT22;34586;53.616;10.032;2024-02-23T05:13:18;6.40;99.90
10873;DHT22;34586;53.616;10.032;2024-02-23T05:15:44;6.30;99.90
10873;DHT22;34586;53.616;10.032;2024-02-23T05:18:10;6.30;99.90
10873;DHT22;34586;53.616;10.032;2024-02-23T05:20:36;6.30;99.90
10873;DHT22;34586;53.616;10.032;2024-02-23T05:23:02;6.30;99.90
10873;DHT22;34586;53.616;10.032;2024-02-23T05:25:28;6.30;99.90
10873;DHT22;34586;53.616;10.032;2024-02-23T05:27:53;6.20;99.90
10873;DHT22;34586;53.616;10.032;2024-02-23T05:30:19;6.20;99.90
10873;DHT22;34586;53.616;10.032;2024-02-23T05:32:45;6.10;99.90
10873;DHT22;34586;53.616;10.032;2024-02-23T05:35:10;6.20;99.90
10873;DHT22;34586;53.616;10.032;2024-02-23T05:37:36;6.10;99.90
10873;DHT22;34586;53.616;10.032;2024-02-23T05:40:05;6.00;99.90
10873;DHT22;34586;53.616;10.032;2024-02-23T05:42:37;6.10;99.90
10873;DHT22;34586;53.616;10.032;2024-02-23T05:45:04;6.10;99.90
10873;DHT22;34586;53.616;10.032;2024-02-23T05:47:38;6.10;99.90
10873;DHT22;34586;53.616;10.032;2024-02-23T05:50:05;6.20;99.90
10873;DHT22;34586;53.616;10.032;2024-02-23T05:52:33;6.20;99.90
10873;DHT22;34586;53.616;10.032;2024-02-23T05:55:00;6.30;99.90
10873;DHT22;34586;53.616;10.032;2024-02-23T05:57:28;6.20;99.90
10873;DHT22;34586;53.616;10.032;2024-02-23T05:59:54;6.20;99.90
10873;DHT22;34586;53.616;10.032;2024-02-23T06:02:21;6.20;99.90
10873;DHT22;34586;53.616;10.032;2024-02-23T06:04:47;6.20;99.90
10873;DHT22;34586;53.616;10.032;2024-02-23T06:07:13;6.20;99.90
10873;DHT22;34586;53.616;10.032;2024-02-23T06:09:38;6.30;99.90
10873;DHT22;34586;53.616;10.032;2024-02-23T06:12:05;6.20;99.90
10873;DHT22;34586;53.616;10.032;2024-02-23T06:14:31;6.20;99.90
10873;DHT22;34586;53.616;10.032;2024-02-23T06:16:56;6.20;99.90
10873;DHT22;34586;53.616;10.032;2024-02-23T06:19:22;6.20;99.90
10873;DHT22;34586;53.616;10.032;2024-02-23T06:21:48;6.10;99.90
10873;DHT22;34586;53.616;10.032;2024-02-23T06:24:14;6.10;99.90
10873;DHT22;34586;53.616;10.032;2024-02-23T06:26:40;6.10;99.90
10873;DHT22;34586;53.616;10.032;2024-02-23T06:29:05;6.10;99.90
10873;DHT22;34586;53.616;10.032;2024-02-23T06:31:31;6.20;99.90
10873;DHT22;34586;53.616;10.032;2024-02-23T06:33:59;6.20;96.30
10873;DHT22;34586;53.616;10.032;2024-02-23T06:36:25;6.20;99.90
10873;DHT22;34586;53.616;10.032;2024-02-23T06:38:51;6.20;94.00
10873;DHT22;34586;53.616;10.032;2024-02-23T06:41:16;6.20;82.00
10873;DHT22;34586;53.616;10.032;2024-02-23T06:43:42;6.20;92.50
10873;DHT22;34586;53.616;10.032;2024-02-23T06:46:08;6.20;99.90
10873;DHT22;34586;53.616;10.032;2024-02-23T06:48:35;6.10;99.90
10873;DHT22;34586;53.616;10.032;2024-02-23T06:51:01;6.20;92.40
10873;DHT22;34586;53.616;10.032;2024-02-23T06:53:26;6.20;99.90
10873;DHT22;34586;53.616;10.032;2024-02-23T06:55:52;6.20;84.30
10873;DHT22;34586;53.616;10.032;2024-02-23T06:58:18;6.20;99.90
10873;DHT22;34586;53.616;10.032;2024-02-23T07:00:44;6.20;96.80
10873;DHT22;34586;53.616;10.032;2024-02-23T07:03:09;6.30;99.90
10873;DHT22;34586;53.616;10.032;2024-02-23T07:05:35;6.40;99.90
10873;DHT22;34586;53.616;10.032;2024-02-23T07:08:01;6.30;99.90
10873;DHT22;34586;53.616;10.032;2024-02-23T07:10:27;6.30;93.50
10873;DHT22;34586;53.616;10.032;2024-02-23T07:12:53;6.30;97.60
10873;DHT22;34586;53.616;10.032;2024-02-23T07:15:19;6.40;99.90
10873;DHT22;34586;53.616;10.032;2024-02-23T07:17:45;6.50;95.60
10873;DHT22;34586;53.616;10.032;2024-02-23T07:20:11;6.50;99.90
10873;DHT22;34586;53.616;10.032;2024-02-23T07:22:37;6.50;99.90
10873;DHT22;34586;53.616;10.032;2024-02-23T07:25:03;6.40;99.90
10873;DHT22;34586;53.616;10.032;2024-02-23T07:27:30;6.30;99.90
10873;DHT22;34586;53.616;10.032;2024-02-23T07:29:56;6.30;99.90
10873;DHT22;34586;53.616;10.032;2024-02-23T07:32:22;6.20;99.90
10873;DHT22;34586;53.616;10.032;2024-02-23T07:34:47;6.20;99.90
10873;DHT22;34586;53.616;10.032;2024-02-23T07:37:13;6.20;99.90
10873;DHT22;34586;53.616;10.032;2024-02-23T07:39:39;6.20;99.90
10873;DHT22;34586;53.616;10.032;2024-02-23T07:42:05;6.20;99.90
10873;DHT22;34586;53.616;10.032;2024-02-23T07:44:31;6.20;99.90
10873;DHT22;34586;53.616;10.032;2024-02-23T07:46:57;6.20;99.90
10873;DHT22;34586;53.616;10.032;2024-02-23T07:49:24;6.20;99.90
10873;DHT22;34586;53.616;10.032;2024-02-23T07:51:50;6.20;99.90
10873;DHT22;34586;53.616;10.032;2024-02-23T07:54:16;6.20;99.90
10873;DHT22;34586;53.616;10.032;2024-02-23T07:56:41;6.20;99.90
10873;DHT22;34586;53.616;10.032;2024-02-23T07:59:07;6.20;99.90
10873;DHT22;34586;53.616;10.032;2024-02-23T08:01:33;6.20;99.90
10873;DHT22;34586;53.616;10.032;2024-02-23T08:03:59;6.20;99.90
10873;DHT22;34586;53.616;10.032;2024-02-23T08:06:25;6.30;99.90
10873;DHT22;34586;53.616;10.032;2024-02-23T08:08:51;6.30;99.90
10873;DHT22;34586;53.616;10.032;2024-02-23T08:11:19;6.40;99.90
10873;DHT22;34586;53.616;10.032;2024-02-23T08:13:44;6.40;99.90
10873;DHT22;34586;53.616;10.032;2024-02-23T08:16:10;6.50;94.50
10873;DHT22;34586;53.616;10.032;2024-02-23T08:18:36;6.60;99.90
10873;DHT22;34586;53.616;10.032;2024-02-23T08:21:02;6.70;74.90
10873;DHT22;34586;53.616;10.032;2024-02-23T08:23:28;6.70;81.00
10873;DHT22;34586;53.616;10.032;2024-02-23T08:25:55;6.80;93.50
10873;DHT22;34586;53.616;10.032;2024-02-23T08:28:25;6.90;1.00
10873;DHT22;34586;53.616;10.032;2024-02-23T08:30:51;6.90;1.00
10873;DHT22;34586;53.616;10.032;2024-02-23T08:33:16;6.90;1.00
10873;DHT22;34586;53.616;10.032;2024-02-23T08:35:42;6.90;1.00
10873;DHT22;34586;53.616;10.032;2024-02-23T08:38:08;7.00;1.00
10873;DHT22;34586;53.616;10.032;2024-02-23T08:40:34;7.00;1.00
10873;DHT22;34586;53.616;10.032;2024-02-23T08:43:00;7.10;1.00
10873;DHT22;34586;53.616;10.032;2024-02-23T08:45:26;7.10;1.00
10873;DHT22;34586;53.616;10.032;2024-02-23T08:47:51;7.20;1.00
10873;DHT22;34586;53.616;10.032;2024-02-23T08:50:17;7.40;1.00
10873;DHT22;34586;53.616;10.032;2024-02-23T08:52:42;7.50;1.00
10873;DHT22;34586;53.616;10.032;2024-02-23T08:55:08;7.60;1.00
10873;DHT22;34586;53.616;10.032;2024-02-23T08:57:34;7.80;1.00
10873;DHT22;34586;53.616;10.032;2024-02-23T09:00:00;7.90;1.00
10873;DHT22;34586;53.616;10.032;2024-02-23T09:02:25;7.80;1.00
10873;DHT22;34586;53.616;10.032;2024-02-23T09:04:51;7.90;1.00
10873;DHT22;34586;53.616;10.032;2024-02-23T09:07:17;7.90;1.00
10873;DHT22;34586;53.616;10.032;2024-02-23T09:09:46;7.80;1.00
10873;DHT22;34586;53.616;10.032;2024-02-23T09:12:12;8.00;1.00
10873;DHT22;34586;53.616;10.032;2024-02-23T09:14:40;7.90;1.00
10873;DHT22;34586;53.616;10.032;2024-02-23T09:17:07;8.10;1.00
10873;DHT22;34586;53.616;10.032;2024-02-23T09:19:33;8.10;1.00
10873;DHT22;34586;53.616;10.032;2024-02-23T09:21:59;8.10;1.00
10873;DHT22;34586;53.616;10.032;2024-02-23T09:24:26;8.10;1.00
10873;DHT22;34586;53.616;10.032;2024-02-23T09:26:51;8.20;1.00
10873;DHT22;34586;53.616;10.032;2024-02-23T09:29:18;8.10;1.00
10873;DHT22;34586;53.616;10.032;2024-02-23T09:31:43;8.30;1.00
10873;DHT22;34586;53.616;10.032;2024-02-23T09:34:09;8.20;1.00
10873;DHT22;34586;53.616;10.032;2024-02-23T09:36:34;8.10;1.00
10873;DHT22;34586;53.616;10.032;2024-02-23T09:39:00;8.30;1.00
10873;DHT22;34586;53.616;10.032;2024-02-23T09:41:27;8.20;1.00
10873;DHT22;34586;53.616;10.032;2024-02-23T09:43:58;8.40;1.00
10873;DHT22;34586;53.616;10.032;2024-02-23T09:46:23;8.50;1.00
10873;DHT22;34586;53.616;10.032;2024-02-23T09:48:50;8.60;1.00
10873;DHT22;34586;53.616;10.032;2024-02-23T09:51:17;8.50;99.90
10873;DHT22;34586;53.616;10.032;2024-02-23T09:53:43;8.50;1.00
10873;DHT22;34586;53.616;10.032;2024-02-23T09:56:10;8.50;1.00
10873;DHT22;34586;53.616;10.032;2024-02-23T09:58:39;8.50;1.00
10873;DHT22;34586;53.616;10.032;2024-02-23T10:01:06;8.80;1.00
10873;DHT22;34586;53.616;10.032;2024-02-23T10:03:32;8.60;1.00
10873;DHT22;34586;53.616;10.032;2024-02-23T10:05:59;8.60;1.00
10873;DHT22;34586;53.616;10.032;2024-02-23T10:08:29;8.60;1.00
10873;DHT22;34586;53.616;10.032;2024-02-23T10:10:55;8.60;1.00
10873;DHT22;34586;53.616;10.032;2024-02-23T10:13:24;8.60;1.00
10873;DHT22;34586;53.616;10.032;2024-02-23T10:15:53;8.60;1.00
10873;DHT22;34586;53.616;10.032;2024-02-23T10:18:19;8.60;1.00
10873;DHT22;34586;53.616;10.032;2024-02-23T10:20:48;8.70;1.00
10873;DHT22;34586;53.616;10.032;2024-02-23T10:23:16;8.80;99.90
10873;DHT22;34586;53.616;10.032;2024-02-23T10:25:41;9.00;99.90
10873;DHT22;34586;53.616;10.032;2024-02-23T10:28:07;9.00;99.90
10873;DHT22;34586;53.616;10.032;2024-02-23T10:30:33;9.10;99.90
10873;DHT22;34586;53.616;10.032;2024-02-23T10:32:59;9.10;99.90
10873;DHT22;34586;53.616;10.032;2024-02-23T10:35:26;9.00;99.90
10873;DHT22;34586;53.616;10.032;2024-02-23T10:37:53;8.90;1.00
10873;DHT22;34586;53.616;10.032;2024-02-23T10:40:20;8.90;99.90
10873;DHT22;34586;53.616;10.032;2024-02-23T10:42:48;8.90;99.90
10873;DHT22;34586;53.616;10.032;2024-02-23T10:45:18;8.80;99.90
10873;DHT22;34586;53.616;10.032;2024-02-23T10:47:44;8.70;99.90
10873;DHT22;34586;53.616;10.032;2024-02-23T10:50:10;8.90;99.90
10873;DHT22;34586;53.616;10.032;2024-02-23T10:52:41;8.80;99.90
10873;DHT22;34586;53.616;10.032;2024-02-23T10:55:09;8.90;99.90
10873;DHT22;34586;53.616;10.032;2024-02-23T10:57:35;9.00;99.90
10873;DHT22;34586;53.616;10.032;2024-02-23T11:00:02;9.00;99.90
10873;DHT22;34586;53.616;10.032;2024-02-23T11:02:32;9.00;99.90
10873;DHT22;34586;53.616;10.032;2024-02-23T11:05:01;9.10;99.90
10873;DHT22;34586;53.616;10.032;2024-02-23T11:07:30;9.20;99.90
10873;DHT22;34586;53.616;10.032;2024-02-23T11:09:58;9.00;99.90
10873;DHT22;34586;53.616;10.032;2024-02-23T11:12:30;9.20;99.90
10873;DHT22;34586;53.616;10.032;2024-02-23T11:14:57;9.20;99.90
10873;DHT22;34586;53.616;10.032;2024-02-23T11:17:30;9.40;99.90
10873;DHT22;34586;53.616;10.032;2024-02-23T11:19:56;9.60;99.90
10873;DHT22;34586;53.616;10.032;2024-02-23T11:22:26;9.60;99.90
10873;DHT22;34586;53.616;10.032;2024-02-23T11:24:52;9.70;99.90
10873;DHT22;34586;53.616;10.032;2024-02-23T11:27:19;9.80;99.90
10873;DHT22;34586;53.616;10.032;2024-02-23T11:29:47;9.70;99.90
10873;DHT22;34586;53.616;10.032;2024-02-23T11:32:16;9.50;99.90
10873;DHT22;34586;53.616;10.032;2024-02-23T11:34:54;9.40;99.90
10873;DHT22;34586;53.616;10.032;2024-02-23T11:37:21;9.40;99.90
10873;DHT22;34586;53.616;10.032;2024-02-23T11:39:46;9.30;99.90
10873;DHT22;34586;53.616;10.032;2024-02-23T11:42:12;9.30;99.90
10873;DHT22;34586;53.616;10.032;2024-02-23T11:44:38;9.20;99.90
10873;DHT22;34586;53.616;10.032;2024-02-23T11:47:04;9.30;99.90
10873;DHT22;34586;53.616;10.032;2024-02-23T11:49:30;9.40;99.90
10873;DHT22;34586;53.616;10.032;2024-02-23T11:51:56;9.50;99.90
10873;DHT22;34586;53.616;10.032;2024-02-23T11:54:22;9.50;99.90
10873;DHT22;34586;53.616;10.032;2024-02-23T11:56:48;9.60;99.90
10873;DHT22;34586;53.616;10.032;2024-02-23T11:59:15;9.80;99.90
10873;DHT22;34586;53.616;10.032;2024-02-23T12:01:41;9.90;99.90
10873;DHT22;34586;53.616;10.032;2024-02-23T12:04:07;10.00;99.90
10873;DHT22;34586;53.616;10.032;2024-02-23T12:06:33;10.10;99.90
10873;DHT22;34586;53.616;10.032;2024-02-23T12:09:00;10.00;99.90
10873;DHT22;34586;53.616;10.032;2024-02-23T12:11:26;9.90;99.90
10873;DHT22;34586;53.616;10.032;2024-02-23T12:13:53;9.80;99.90
10873;DHT22;34586;53.616;10.032;2024-02-23T12:16:20;9.90;99.90
10873;DHT22;34586;53.616;10.032;2024-02-23T12:18:53;9.90;99.90
10873;DHT22;34586;53.616;10.032;2024-02-23T12:21:19;9.90;99.90
10873;DHT22;34586;53.616;10.032;2024-02-23T12:23:45;9.90;99.90
10873;DHT22;34586;53.616;10.032;2024-02-23T12:26:14;10.00;99.90
10873;DHT22;34586;53.616;10.032;2024-02-23T12:28:40;9.90;99.90
10873;DHT22;34586;53.616;10.032;2024-02-23T12:31:06;9.90;99.90
10873;DHT22;34586;53.616;10.032;2024-02-23T12:33:33;10.00;99.90
10873;DHT22;34586;53.616;10.032;2024-02-23T12:36:00;10.00;99.90
10873;DHT22;34586;53.616;10.032;2024-02-23T12:38:25;10.00;99.90
10873;DHT22;34586;53.616;10.032;2024-02-23T12:40:51;9.90;99.90
10873;DHT22;34586;53.616;10.032;2024-02-23T12:43:18;9.70;99.90
10873;DHT22;34586;53.616;10.032;2024-02-23T12:45:43;9.70;99.90
10873;DHT22;34586;53.616;10.032;2024-02-23T12:48:15;9.60;99.90
10873;DHT22;34586;53.616;10.032;2024-02-23T12:50:41;9.60;99.90
10873;DHT22;34586;53.616;10.032;2024-02-23T12:53:08;9.80;99.90
10873;DHT22;34586;53.616;10.032;2024-02-23T12:55:34;9.80;99.90
10873;DHT22;34586;53.616;10.032;2024-02-23T12:58:02;9.90;99.90
10873;DHT22;34586;53.616;10.032;2024-02-23T13:00:27;9.90;99.90
10873;DHT22;34586;53.616;10.032;2024-02-23T13:02:53;10.00;99.90
10873;DHT22;34586;53.616;10.032;2024-02-23T13:05:19;10.10;99.90
10873;DHT22;34586;53.616;10.032;2024-02-23T13:07:45;10.10;99.90
10873;DHT22;34586;53.616;10.032;2024-02-23T13:10:12;10.10;99.90
10873;DHT22;34586;53.616;10.032;2024-02-23T13:12:38;10.20;99.90
10873;DHT22;34586;53.616;10.032;2024-02-23T13:15:04;10.20;99.90
10873;DHT22;34586;53.616;10.032;2024-02-23T13:17:29;10.10;99.90
10873;DHT22;34586;53.616;10.032;2024-02-23T13:19:55;10.30;99.90
10873;DHT22;34586;53.616;10.032;2024-02-23T13:22:21;10.60;99.90
10873;DHT22;34586;53.616;10.032;2024-02-23T13:24:46;10.50;99.90
10873;DHT22;34586;53.616;10.032;2024-02-23T13:27:12;10.50;99.90
10873;DHT22;34586;53.616;10.032;2024-02-23T13:29:37;10.30;99.90
10873;DHT22;34586;53.616;10.032;2024-02-23T13:32:03;10.20;99.90
10873;DHT22;34586;53.616;10.032;2024-02-23T13:34:29;10.20;99.90
10873;DHT22;34586;53.616;10.032;2024-02-23T13:36:54;10.10;99.90
10873;DHT22;34586;53.616;10.032;2024-02-23T13:39:20;10.10;99.90
10873;DHT22;34586;53.616;10.032;2024-02-23T13:41:46;10.10;99.90
10873;DHT22;34586;53.616;10.032;2024-02-23T13:44:11;9.80;99.90
10873;DHT22;34586;53.616;10.032;2024-02-23T13:46:40;9.80;99.90
10873;DHT22;34586;53.616;10.032;2024-02-23T13:49:06;9.70;99.90
10873;DHT22;34586;53.616;10.032;2024-02-23T13:51:33;9.60;99.90
10873;DHT22;34586;53.616;10.032;2024-02-23T13:53:59;9.50;99.90
10873;DHT22;34586;53.616;10.032;2024-02-23T13:56:25;9.50;99.90
10873;DHT22;34586;53.616;10.032;2024-02-23T13:58:50;9.50;99.90
10873;DHT22;34586;53.616;10.032;2024-02-23T14:01:16;9.50;99.90
10873;DHT22;34586;53.616;10.032;2024-02-23T14:03:42;9.50;99.90
10873;DHT22;34586;53.616;10.032;2024-02-23T14:06:08;9.50;99.90
10873;DHT22;34586;53.616;10.032;2024-02-23T14:08:35;9.40;99.90
10873;DHT22;34586;53.616;10.032;2024-02-23T14:11:03;9.40;99.90
10873;DHT22;34586;53.616;10.032;2024-02-23T14:13:31;9.50;99.90
10873;DHT22;34586;53.616;10.032;2024-02-23T14:15:58;9.60;99.90
10873;DHT22;34586;53.616;10.032;2024-02-23T14:18:23;9.50;99.90
10873;DHT22;34586;53.616;10.032;2024-02-23T14:20:49;9.50;99.90
10873;DHT22;34586;53.616;10.032;2024-02-23T14:23:17;9.60;99.90
10873;DHT22;34586;53.616;10.032;2024-02-23T14:25:43;9.70;99.90
10873;DHT22;34586;53.616;10.032;2024-02-23T14:28:08;9.90;99.90
10873;DHT22;34586;53.616;10.032;2024-02-23T14:30:35;9.90;99.90
10873;DHT22;34586;53.616;10.032;2024-02-23T14:33:01;10.00;99.90
10873;DHT22;34586;53.616;10.032;2024-02-23T14:35:26;10.20;99.90
10873;DHT22;34586;53.616;10.032;2024-02-23T14:37:52;10.10;99.90
10873;DHT22;34586;53.616;10.032;2024-02-23T14:40:17;10.00;99.90
10873;DHT22;34586;53.616;10.032;2024-02-23T14:42:43;9.80;99.90
10873;DHT22;34586;53.616;10.032;2024-02-23T14:45:09;9.70;99.90
10873;DHT22;34586;53.616;10.032;2024-02-23T14:47:35;9.70;99.90
10873;DHT22;34586;53.616;10.032;2024-02-23T14:50:01;9.50;99.90
10873;DHT22;34586;53.616;10.032;2024-02-23T14:52:26;9.60;99.90
10873;DHT22;34586;53.616;10.032;2024-02-23T14:54:52;9.40;99.90
10873;DHT22;34586;53.616;10.032;2024-02-23T14:57:19;9.40;99.90
10873;DHT22;34586;53.616;10.032;2024-02-23T14:59:44;9.30;99.90
10873;DHT22;34586;53.616;10.032;2024-02-23T15:02:22;9.40;99.90
10873;DHT22;34586;53.616;10.032;2024-02-23T15:04:47;9.50;99.90
10873;DHT22;34586;53.616;10.032;2024-02-23T15:07:13;9.50;99.90
10873;DHT22;34586;53.616;10.032;2024-02-23T15:09:39;9.60;99.90
10873;DHT22;34586;53.616;10.032;2024-02-23T15:12:05;9.60;99.90
10873;DHT22;34586;53.616;10.032;2024-02-23T15:14:30;9.60;99.90
10873;DHT22;34586;53.616;10.032;2024-02-23T15:16:56;9.60;99.90
10873;DHT22;34586;53.616;10.032;2024-02-23T15:19:22;9.70;99.90
10873;DHT22;34586;53.616;10.032;2024-02-23T15:21:48;9.70;99.90
10873;DHT22;34586;53.616;10.032;2024-02-23T15:24:14;9.50;99.90
10873;DHT22;34586;53.616;10.032;2024-02-23T15:26:43;9.60;99.90